| time (UTC) | temp F | wind direction | speed knots | gust knots | rain 1hr in | rain 24hr in | rain mn in | humidity % | barometer mb |
| 20260509002515 | 66 | 0.0 | 0.0 | 0.00 | 0.00 | 0.00 | 48 | ||
| 20260509001515 | 66 | 214 | 0.0 | 0.9 | 0.00 | 0.00 | 0.00 | 48 | |
| 20260509000516 | 66 | 199 | 0.0 | 0.9 | 0.00 | 0.00 | 0.00 | 47 | |
| 20260508235516 | 66 | 0.0 | 0.0 | 0.00 | 0.00 | 0.00 | 47 | ||
| 20260508234537 | 66 | 205 | 0.0 | 3.5 | 0.00 | 0.00 | 0.00 | 46 | |
| 20260508233518 | 67 | 0.0 | 0.0 | 0.00 | 0.00 | 0.00 | 46 | ||
| 20260508232515 | 67 | 207 | 0.0 | 0.9 | 0.00 | 0.00 | 0.00 | 46 | |
| 20260508231538 | 67 | 0.0 | 0.0 | 0.00 | 0.00 | 0.00 | 46 | ||
| 20260508230516 | 67 | 225 | 0.0 | 0.9 | 0.00 | 0.00 | 0.00 | 45 | |
| 20260508225518 | 67 | 210 | 0.0 | 1.7 | 0.00 | 0.00 | 0.00 | 45 | |
| 20260508224539 | 68 | 218 | 0.0 | 0.9 | 0.00 | 0.00 | 0.00 | 44 | |
| 20260508223517 | 68 | 213 | 0.9 | 3.5 | 0.00 | 0.00 | 0.00 | 44 | |
| 20260508222517 | 68 | 219 | 0.0 | 0.9 | 0.00 | 0.00 | 0.00 | 44 | |
| 20260508221515 | 68 | 204 | 0.9 | 5.2 | 0.00 | 0.00 | 0.00 | 43 | |
| 20260508215515 | 69 | 217 | 0.9 | 3.5 | 0.00 | 0.00 | 0.00 | 42 | |
| 20260508214556 | 69 | 215 | 0.0 | 0.9 | 0.00 | 0.00 | 0.00 | 42 | |
| 20260508213516 | 69 | 221 | 0.0 | 1.7 | 0.00 | 0.00 | 0.00 | 41 | |
| 20260508212516 | 69 | 229 | 0.9 | 1.7 | 0.00 | 0.00 | 0.00 | 41 | |
| 20260508211538 | 69 | 191 | 0.9 | 4.3 | 0.00 | 0.00 | 0.00 | 40 | |
| 20260508210515 | 69 | 216 | 0.0 | 1.7 | 0.00 | 0.00 | 0.00 | 42 | |
| 20260508205515 | 69 | 219 | 1.7 | 4.3 | 0.00 | 0.00 | 0.00 | 41 | |
| 20260508204516 | 69 | 212 | 0.9 | 2.6 | 0.00 | 0.00 | 0.00 | 41 | |
| 20260508203516 | 69 | 229 | 1.7 | 2.6 | 0.00 | 0.00 | 0.00 | 40 | |
| 20260508202516 | 69 | 221 | 1.7 | 3.5 | 0.00 | 0.00 | 0.00 | 41 | |
| 20260508201519 | 69 | 213 | 0.9 | 2.6 | 0.00 | 0.00 | 0.00 | 40 | |
| 20260508200534 | 68 | 228 | 0.9 | 1.7 | 0.00 | 0.00 | 0.00 | 41 | |
| 20260508195515 | 68 | 219 | 1.7 | 3.5 | 0.00 | 0.00 | 0.00 | 40 | |
| 20260508194516 | 69 | 222 | 1.7 | 3.5 | 0.00 | 0.00 | 0.00 | 39 | |
| 20260508193537 | 69 | 211 | 0.9 | 2.6 | 0.00 | 0.00 | 0.00 | 38 | |
| 20260508192516 | 69 | 224 | 1.7 | 4.3 | 0.00 | 0.00 | 0.00 | 38 | |
| 20260508191516 | 71 | 228 | 3.5 | 7.8 | 0.00 | 0.00 | 0.00 | 35 | |
| 20260508190517 | 71 | 219 | 1.7 | 7.0 | 0.00 | 0.00 | 0.00 | 38 | |
| 20260508185516 | 71 | 210 | 0.9 | 5.2 | 0.00 | 0.00 | 0.00 | 38 | |
| 20260508184517 | 70 | 221 | 0.9 | 3.5 | 0.00 | 0.00 | 0.00 | 40 | |
| 20260508183515 | 70 | 223 | 1.7 | 3.5 | 0.00 | 0.00 | 0.00 | 39 | |
| 20260508182517 | 70 | 235 | 1.7 | 2.6 | 0.00 | 0.00 | 0.00 | 39 | |
| 20260508181516 | 71 | 218 | 0.9 | 3.5 | 0.00 | 0.00 | 0.00 | 38 | |
| 20260508180559 | 71 | 214 | 1.7 | 5.2 | 0.00 | 0.00 | 0.00 | 38 | |
| 20260508175518 | 71 | 220 | 1.7 | 5.2 | 0.00 | 0.00 | 0.00 | 38 | |
| 20260508174514 | 70 | 214 | 0.9 | 3.5 | 0.00 | 0.00 | 0.00 | 41 | |
| 20260508173516 | 70 | 217 | 2.6 | 6.1 | 0.00 | 0.00 | 0.00 | 40 | |
| 20260508172515 | 69 | 227 | 0.9 | 3.5 | 0.00 | 0.00 | 0.00 | 42 | |
| 20260508171516 | 69 | 213 | 2.6 | 6.1 | 0.00 | 0.00 | 0.00 | 40 | |
| 20260508170516 | 69 | 218 | 2.6 | 7.0 | 0.00 | 0.00 | 0.00 | 40 | |
| 20260508165518 | 69 | 210 | 2.6 | 10.4 | 0.00 | 0.00 | 0.00 | 43 | |
| 20260508164518 | 69 | 219 | 0.9 | 2.6 | 0.00 | 0.00 | 0.00 | 42 | |
| 20260508163535 | 68 | 205 | 2.6 | 8.7 | 0.00 | 0.00 | 0.00 | 43 | |
| 20260508162515 | 68 | 227 | 1.7 | 3.5 | 0.00 | 0.00 | 0.00 | 44 | |
| 20260508161517 | 68 | 219 | 1.7 | 4.3 | 0.00 | 0.00 | 0.00 | 44 | |
| 20260508160516 | 66 | 233 | 1.7 | 3.5 | 0.00 | 0.00 | 0.00 | 45 | |
| 20260508155536 | 66 | 219 | 2.6 | 4.3 | 0.00 | 0.00 | 0.00 | 45 | |
| 20260508154517 | 66 | 219 | 2.6 | 6.1 | 0.00 | 0.00 | 0.00 | 46 | |
| 20260508153517 | 65 | 215 | 1.7 | 6.1 | 0.00 | 0.00 | 0.00 | 46 | |
| 20260508152515 | 65 | 228 | 1.7 | 3.5 | 0.00 | 0.00 | 0.00 | 47 | |
| 20260508151515 | 65 | 226 | 1.7 | 4.3 | 0.00 | 0.00 | 0.00 | 47 | |
| 20260508150515 | 64 | 226 | 0.9 | 3.5 | 0.00 | 0.00 | 0.00 | 48 | |
| 20260508145516 | 63 | 227 | 1.7 | 4.3 | 0.00 | 0.00 | 0.00 | 47 | |
| 20260508144602 | 62 | 230 | 1.7 | 3.5 | 0.00 | 0.00 | 0.00 | 48 | |
| 20260508143520 | 62 | 228 | 1.7 | 3.5 | 0.00 | 0.00 | 0.00 | 48 | |
| 20260508142517 | 61 | 219 | 0.9 | 4.3 | 0.00 | 0.00 | 0.00 | 50 | |
| 20260508141515 | 61 | 224 | 1.7 | 3.5 | 0.00 | 0.00 | 0.00 | 50 | |
| 20260508140515 | 60 | 227 | 1.7 | 6.1 | 0.00 | 0.00 | 0.00 | 50 | |
| 20260508135516 | 60 | 233 | 1.7 | 3.5 | 0.00 | 0.00 | 0.00 | 50 | |
| 20260508134517 | 59 | 229 | 0.9 | 4.3 | 0.00 | 0.00 | 0.00 | 51 | |
| 20260508133517 | 58 | 228 | 0.9 | 4.3 | 0.00 | 0.00 | 0.00 | 51 | |
| 20260508132538 | 58 | 219 | 1.7 | 5.2 | 0.00 | 0.00 | 0.00 | 51 | |
| 20260508131515 | 57 | 230 | 0.9 | 3.5 | 0.00 | 0.00 | 0.00 | 53 | |
| 20260508130517 | 56 | 226 | 1.7 | 3.5 | 0.00 | 0.00 | 0.00 | 53 | |
| 20260508125515 | 55 | 215 | 0.9 | 1.7 | 0.00 | 0.00 | 0.00 | 55 | |
| 20260508124516 | 54 | 218 | 0.9 | 5.2 | 0.00 | 0.00 | 0.00 | 56 | |
| 20260508123516 | 53 | 220 | 0.9 | 1.7 | 0.00 | 0.00 | 0.00 | 57 | |
| 20260508122559 | 52 | 211 | 0.9 | 3.5 | 0.00 | 0.00 | 0.00 | 58 | |
| 20260508121517 | 52 | 224 | 0.0 | 0.9 | 0.00 | 0.00 | 0.00 | 60 | |
| 20260508120516 | 51 | 211 | 0.9 | 1.7 | 0.00 | 0.00 | 0.00 | 60 | |
| 20260508115537 | 50 | 215 | 0.0 | 0.9 | 0.00 | 0.00 | 0.00 | 62 | |
| 20260508114515 | 50 | 225 | 0.0 | 0.9 | 0.00 | 0.00 | 0.00 | 62 | |
| 20260508113516 | 50 | 219 | 0.9 | 1.7 | 0.00 | 0.00 | 0.00 | 62 | |
| 20260508112516 | 49 | 217 | 0.9 | 1.7 | 0.00 | 0.00 | 0.00 | 62 | |
| 20260508111517 | 50 | 213 | 0.0 | 1.7 | 0.00 | 0.00 | 0.00 | 62 | |
| 20260508110517 | 50 | 209 | 0.0 | 0.9 | 0.00 | 0.00 | 0.00 | 61 | |
| 20260508105515 | 50 | 198 | 0.0 | 1.7 | 0.00 | 0.00 | 0.00 | 61 | |
| 20260508104516 | 50 | 221 | 0.0 | 0.9 | 0.00 | 0.00 | 0.00 | 61 | |
| 20260508103515 | 50 | 225 | 0.0 | 0.9 | 0.00 | 0.00 | 0.00 | 61 | |
| 20260508102517 | 49 | 210 | 0.0 | 0.9 | 0.00 | 0.00 | 0.00 | 61 | |
| 20260508101536 | 49 | 209 | 0.0 | 1.7 | 0.00 | 0.00 | 0.00 | 61 | |
| 20260508100518 | 49 | 220 | 0.0 | 0.9 | 0.00 | 0.00 | 0.00 | 62 | |
| 20260508095517 | 49 | 224 | 0.0 | 0.9 | 0.00 | 0.00 | 0.00 | 62 | |
| 20260508094516 | 49 | 226 | 0.0 | 0.9 | 0.00 | 0.00 | 0.00 | 62 | |
| 20260508093515 | 49 | 220 | 0.0 | 0.9 | 0.00 | 0.00 | 0.00 | 62 | |
| 20260508092515 | 49 | 222 | 0.0 | 0.9 | 0.00 | 0.00 | 0.00 | 62 | |
| 20260508091516 | 49 | 226 | 0.0 | 0.9 | 0.00 | 0.00 | 0.00 | 62 | |
| 20260508090516 | 49 | 219 | 0.0 | 0.9 | 0.00 | 0.00 | 0.00 | 62 | |
| 20260508085517 | 49 | 229 | 0.0 | 0.9 | 0.00 | 0.00 | 0.00 | 61 | |
| 20260508084538 | 49 | 224 | 0.0 | 0.9 | 0.00 | 0.00 | 0.00 | 61 | |
| 20260508083514 | 49 | 224 | 0.0 | 0.9 | 0.00 | 0.00 | 0.00 | 61 | |
| 20260508082515 | 49 | 223 | 0.0 | 0.9 | 0.00 | 0.00 | 0.00 | 61 | |
| 20260508081516 | 49 | 218 | 0.0 | 0.9 | 0.00 | 0.00 | 0.00 | 60 | |
| 20260508080516 | 49 | 220 | 0.0 | 0.9 | 0.00 | 0.00 | 0.00 | 60 | |
| 20260508075516 | 49 | 217 | 0.0 | 0.9 | 0.00 | 0.00 | 0.00 | 59 | |
| 20260508074519 | 49 | 219 | 0.0 | 0.9 | 0.00 | 0.00 | 0.00 | 60 | |
| 20260508073601 | 49 | 220 | 0.0 | 0.9 | 0.00 | 0.00 | 0.00 | 60 | |
| 20260508072515 | 49 | 227 | 0.0 | 0.9 | 0.00 | 0.00 | 0.00 | 61 | |
| 20260508071517 | 49 | 221 | 0.0 | 0.9 | 0.00 | 0.00 | 0.00 | 61 | |
| 20260508070515 | 49 | 222 | 0.0 | 0.9 | 0.00 | 0.00 | 0.00 | 60 | |
| 20260508065516 | 49 | 204 | 0.0 | 0.9 | 0.00 | 0.00 | 0.00 | 60 | |
| 20260508064516 | 49 | 196 | 0.0 | 0.9 | 0.00 | 0.00 | 0.00 | 60 | |
| 20260508063538 | 49 | 223 | 0.0 | 1.7 | 0.00 | 0.00 | 0.00 | 60 | |
| 20260508062518 | 49 | 222 | 0.0 | 0.9 | 0.00 | 0.00 | 0.00 | 60 | |
| 20260508061535 | 50 | 212 | 0.0 | 0.9 | 0.00 | 0.00 | 0.00 | 59 | |
| 20260508060516 | 50 | 220 | 0.0 | 0.9 | 0.00 | 0.00 | 0.00 | 58 | |
| 20260508055515 | 50 | 0.0 | 0.0 | 0.00 | 0.00 | 0.00 | 57 | ||
| 20260508054516 | 50 | 0.0 | 0.0 | 0.00 | 0.00 | 0.00 | 57 | ||
| 20260508053516 | 50 | 0.0 | 0.0 | 0.00 | 0.00 | 0.00 | 57 | ||
| 20260508052538 | 50 | 0.0 | 0.0 | 0.00 | 0.00 | 0.00 | 56 | ||
| 20260508051517 | 50 | 0.0 | 0.0 | 0.00 | 0.00 | 0.00 | 55 | ||
| 20260508050535 | 50 | 197 | 0.0 | 0.9 | 0.00 | 0.00 | 0.00 | 55 | |
| 20260508045515 | 51 | 199 | 0.0 | 1.7 | 0.00 | 0.00 | 0.00 | 55 | |
| 20260508044518 | 50 | 196 | 0.0 | 1.7 | 0.00 | 0.00 | 0.00 | 55 | |
| 20260508043516 | 50 | 216 | 0.0 | 0.9 | 0.00 | 0.00 | 0.00 | 55 | |
| 20260508042516 | 50 | 210 | 0.0 | 0.9 | 0.00 | 0.00 | 0.00 | 56 | |
| 20260508041537 | 50 | 0.0 | 0.0 | 0.00 | 0.00 | 0.00 | 57 | ||
| 20260508040518 | 50 | 0.0 | 0.0 | 0.00 | 0.00 | 0.00 | 57 | ||
| 20260508035515 | 50 | 0.0 | 0.0 | 0.00 | 0.00 | 0.00 | 57 | ||
| 20260508034515 | 50 | 0.0 | 0.0 | 0.00 | 0.00 | 0.00 | 56 | ||
| 20260508033515 | 51 | 0.0 | 0.0 | 0.00 | 0.00 | 0.00 | 55 | ||
| 20260508032516 | 51 | 0.0 | 0.0 | 0.00 | 0.00 | 0.00 | 55 | ||
| 20260508031517 | 51 | 0.0 | 0.0 | 0.00 | 0.00 | 0.00 | 55 | ||
| 20260508030519 | 51 | 0.0 | 0.0 | 0.00 | 0.00 | 0.00 | 54 | ||
| 20260508025519 | 51 | 0.0 | 0.0 | 0.00 | 0.00 | 0.00 | 54 | ||
| 20260508024536 | 52 | 0.0 | 0.0 | 0.00 | 0.00 | 0.00 | 53 | ||
| 20260508023516 | 52 | 0.0 | 0.0 | 0.00 | 0.00 | 0.00 | 53 | ||
| 20260508022516 | 52 | 0.0 | 0.0 | 0.00 | 0.00 | 0.00 | 53 | ||
| 20260508021516 | 52 | 0.0 | 0.0 | 0.00 | 0.00 | 0.00 | 52 | ||
| 20260508020539 | 53 | 0.0 | 0.0 | 0.00 | 0.00 | 0.00 | 51 | ||
| 20260508015517 | 53 | 219 | 0.0 | 0.9 | 0.00 | 0.00 | 0.00 | 51 | |
| 20260508014517 | 53 | 246 | 0.0 | 0.9 | 0.00 | 0.00 | 0.00 | 50 | |
| 20260508013515 | 53 | 0.0 | 0.0 | 0.00 | 0.00 | 0.00 | 50 | ||
| 20260508012516 | 54 | 246 | 0.0 | 0.9 | 0.00 | 0.00 | 0.00 | 49 | |
| 20260508011517 | 54 | 246 | 0.0 | 0.9 | 0.00 | 0.00 | 0.00 | 48 | |
| 20260508010516 | 54 | 0.0 | 0.0 | 0.00 | 0.00 | 0.00 | 47 | ||
| 20260508005516 | 54 | 0.0 | 0.0 | 0.00 | 0.00 | 0.00 | 47 | ||
| 20260508004517 | 55 | 0.0 | 0.0 | 0.00 | 0.00 | 0.00 | 46 | ||
| 20260508003517 | 56 | 0.0 | 0.0 | 0.00 | 0.00 | 0.00 | 45 |